sensor_id;sensor_type;location;lat;lon;timestamp;P1;durP1;ratioP1;P2;durP2;ratioP2
84411;SDS011;74609;44.028;20.950;2024-02-26T00:01:26;5.63;;;4.25;;
84411;SDS011;74609;44.028;20.950;2024-02-26T00:03:52;7.00;;;3.60;;
84411;SDS011;74609;44.028;20.950;2024-02-26T00:06:19;7.47;;;4.72;;
84411;SDS011;74609;44.028;20.950;2024-02-26T00:08:45;8.55;;;5.40;;
84411;SDS011;74609;44.028;20.950;2024-02-26T00:11:11;7.53;;;4.60;;
84411;SDS011;74609;44.028;20.950;2024-02-26T00:13:37;7.72;;;4.65;;
84411;SDS011;74609;44.028;20.950;2024-02-26T00:16:03;9.20;;;5.38;;
84411;SDS011;74609;44.028;20.950;2024-02-26T00:18:31;7.43;;;4.65;;
84411;SDS011;74609;44.028;20.950;2024-02-26T00:20:57;5.82;;;3.72;;
84411;SDS011;74609;44.028;20.950;2024-02-26T00:23:23;6.97;;;3.70;;
84411;SDS011;74609;44.028;20.950;2024-02-26T00:25:49;10.10;;;5.07;;
84411;SDS011;74609;44.028;20.950;2024-02-26T00:28:16;5.63;;;3.78;;
84411;SDS011;74609;44.028;20.950;2024-02-26T00:30:42;8.18;;;4.90;;
84411;SDS011;74609;44.028;20.950;2024-02-26T00:33:08;8.60;;;5.30;;
84411;SDS011;74609;44.028;20.950;2024-02-26T00:35:35;6.45;;;3.53;;
84411;SDS011;74609;44.028;20.950;2024-02-26T00:38:01;4.78;;;3.20;;
84411;SDS011;74609;44.028;20.950;2024-02-26T00:40:28;6.32;;;3.88;;
84411;SDS011;74609;44.028;20.950;2024-02-26T00:42:54;7.18;;;4.28;;
84411;SDS011;74609;44.028;20.950;2024-02-26T00:45:20;9.07;;;4.03;;
84411;SDS011;74609;44.028;20.950;2024-02-26T00:47:46;8.77;;;4.97;;
84411;SDS011;74609;44.028;20.950;2024-02-26T00:50:14;9.55;;;5.72;;
84411;SDS011;74609;44.028;20.950;2024-02-26T00:52:40;8.95;;;5.32;;
84411;SDS011;74609;44.028;20.950;2024-02-26T00:55:06;9.32;;;5.43;;
84411;SDS011;74609;44.028;20.950;2024-02-26T00:57:33;6.20;;;4.00;;
84411;SDS011;74609;44.028;20.950;2024-02-26T00:59:59;9.02;;;5.32;;
84411;SDS011;74609;44.028;20.950;2024-02-26T01:02:26;8.05;;;5.30;;
84411;SDS011;74609;44.028;20.950;2024-02-26T01:04:52;5.78;;;3.72;;
84411;SDS011;74609;44.028;20.950;2024-02-26T01:07:21;7.53;;;4.75;;
84411;SDS011;74609;44.028;20.950;2024-02-26T01:09:47;5.28;;;3.38;;
84411;SDS011;74609;44.028;20.950;2024-02-26T01:12:13;6.10;;;3.85;;
84411;SDS011;74609;44.028;20.950;2024-02-26T01:14:39;9.38;;;4.55;;
84411;SDS011;74609;44.028;20.950;2024-02-26T01:17:05;6.60;;;4.53;;
84411;SDS011;74609;44.028;20.950;2024-02-26T01:19:31;7.55;;;5.15;;
84411;SDS011;74609;44.028;20.950;2024-02-26T01:21:57;5.55;;;3.28;;
84411;SDS011;74609;44.028;20.950;2024-02-26T01:24:23;6.00;;;3.90;;
84411;SDS011;74609;44.028;20.950;2024-02-26T01:26:49;7.35;;;4.07;;
84411;SDS011;74609;44.028;20.950;2024-02-26T01:29:16;4.38;;;3.65;;
84411;SDS011;74609;44.028;20.950;2024-02-26T01:31:42;4.72;;;3.38;;
84411;SDS011;74609;44.028;20.950;2024-02-26T01:34:08;6.90;;;3.47;;
84411;SDS011;74609;44.028;20.950;2024-02-26T01:36:34;8.10;;;4.15;;
84411;SDS011;74609;44.028;20.950;2024-02-26T01:39:00;7.07;;;4.25;;
84411;SDS011;74609;44.028;20.950;2024-02-26T01:41:28;9.98;;;4.43;;
84411;SDS011;74609;44.028;20.950;2024-02-26T01:43:54;8.00;;;5.13;;
84411;SDS011;74609;44.028;20.950;2024-02-26T01:46:20;4.13;;;2.90;;
84411;SDS011;74609;44.028;20.950;2024-02-26T01:48:47;8.07;;;4.40;;
84411;SDS011;74609;44.028;20.950;2024-02-26T01:51:14;12.23;;;5.88;;
84411;SDS011;74609;44.028;20.950;2024-02-26T01:53:42;4.72;;;3.53;;
84411;SDS011;74609;44.028;20.950;2024-02-26T01:56:08;5.22;;;2.88;;
84411;SDS011;74609;44.028;20.950;2024-02-26T01:58:35;4.78;;;3.15;;
84411;SDS011;74609;44.028;20.950;2024-02-26T02:01:01;3.55;;;2.90;;
84411;SDS011;74609;44.028;20.950;2024-02-26T02:03:28;8.35;;;4.63;;
84411;SDS011;74609;44.028;20.950;2024-02-26T02:05:55;5.22;;;3.10;;
84411;SDS011;74609;44.028;20.950;2024-02-26T02:08:21;6.63;;;3.50;;
84411;SDS011;74609;44.028;20.950;2024-02-26T02:10:48;10.90;;;6.03;;
84411;SDS011;74609;44.028;20.950;2024-02-26T02:13:14;11.45;;;5.05;;
84411;SDS011;74609;44.028;20.950;2024-02-26T02:15:40;9.35;;;4.95;;
84411;SDS011;74609;44.028;20.950;2024-02-26T02:18:06;8.52;;;5.00;;
84411;SDS011;74609;44.028;20.950;2024-02-26T02:20:33;6.10;;;3.47;;
84411;SDS011;74609;44.028;20.950;2024-02-26T02:22:59;6.60;;;4.15;;
84411;SDS011;74609;44.028;20.950;2024-02-26T02:25:25;5.25;;;3.45;;
84411;SDS011;74609;44.028;20.950;2024-02-26T02:27:51;5.07;;;3.00;;
84411;SDS011;74609;44.028;20.950;2024-02-26T02:30:19;6.20;;;3.67;;
84411;SDS011;74609;44.028;20.950;2024-02-26T02:32:45;5.90;;;3.75;;
84411;SDS011;74609;44.028;20.950;2024-02-26T02:35:11;5.78;;;3.65;;
84411;SDS011;74609;44.028;20.950;2024-02-26T02:37:37;8.90;;;4.60;;
84411;SDS011;74609;44.028;20.950;2024-02-26T02:40:04;6.72;;;4.15;;
84411;SDS011;74609;44.028;20.950;2024-02-26T02:42:30;6.13;;;3.58;;
84411;SDS011;74609;44.028;20.950;2024-02-26T02:44:56;5.32;;;3.35;;
84411;SDS011;74609;44.028;20.950;2024-02-26T02:47:22;8.30;;;5.15;;
84411;SDS011;74609;44.028;20.950;2024-02-26T02:49:48;9.38;;;5.13;;
84411;SDS011;74609;44.028;20.950;2024-02-26T02:52:14;5.85;;;3.08;;
84411;SDS011;74609;44.028;20.950;2024-02-26T02:54:40;4.75;;;2.53;;
84411;SDS011;74609;44.028;20.950;2024-02-26T02:57:07;5.88;;;4.00;;
84411;SDS011;74609;44.028;20.950;2024-02-26T02:59:34;6.40;;;3.40;;
84411;SDS011;74609;44.028;20.950;2024-02-26T03:02:00;4.72;;;3.00;;
84411;SDS011;74609;44.028;20.950;2024-02-26T03:04:27;5.55;;;3.35;;
84411;SDS011;74609;44.028;20.950;2024-02-26T03:06:54;4.47;;;3.15;;
84411;SDS011;74609;44.028;20.950;2024-02-26T03:09:20;8.00;;;4.25;;
84411;SDS011;74609;44.028;20.950;2024-02-26T03:11:46;4.63;;;3.08;;
84411;SDS011;74609;44.028;20.950;2024-02-26T03:14:12;5.72;;;3.50;;
84411;SDS011;74609;44.028;20.950;2024-02-26T03:16:38;5.03;;;2.92;;
84411;SDS011;74609;44.028;20.950;2024-02-26T03:19:04;6.22;;;3.50;;
84411;SDS011;74609;44.028;20.950;2024-02-26T03:21:31;5.70;;;3.72;;
84411;SDS011;74609;44.028;20.950;2024-02-26T03:23:57;5.82;;;3.47;;
84411;SDS011;74609;44.028;20.950;2024-02-26T03:26:23;6.63;;;3.15;;
84411;SDS011;74609;44.028;20.950;2024-02-26T03:28:49;8.35;;;4.50;;
84411;SDS011;74609;44.028;20.950;2024-02-26T03:31:18;6.97;;;3.53;;
84411;SDS011;74609;44.028;20.950;2024-02-26T03:33:44;5.30;;;3.22;;
84411;SDS011;74609;44.028;20.950;2024-02-26T03:36:10;7.75;;;4.70;;
84411;SDS011;74609;44.028;20.950;2024-02-26T03:38:37;4.95;;;3.25;;
84411;SDS011;74609;44.028;20.950;2024-02-26T03:41:03;6.72;;;3.72;;
84411;SDS011;74609;44.028;20.950;2024-02-26T03:43:29;6.75;;;3.95;;
84411;SDS011;74609;44.028;20.950;2024-02-26T03:45:55;5.43;;;3.13;;
84411;SDS011;74609;44.028;20.950;2024-02-26T03:48:21;4.68;;;3.17;;
84411;SDS011;74609;44.028;20.950;2024-02-26T03:50:47;5.68;;;3.70;;
84411;SDS011;74609;44.028;20.950;2024-02-26T03:53:13;5.97;;;3.17;;
84411;SDS011;74609;44.028;20.950;2024-02-26T03:55:40;5.68;;;3.63;;
84411;SDS011;74609;44.028;20.950;2024-02-26T03:58:07;6.88;;;3.65;;
84411;SDS011;74609;44.028;20.950;2024-02-26T04:00:34;5.55;;;3.35;;
84411;SDS011;74609;44.028;20.950;2024-02-26T04:03:00;5.50;;;3.38;;
84411;SDS011;74609;44.028;20.950;2024-02-26T04:05:26;4.85;;;2.92;;
84411;SDS011;74609;44.028;20.950;2024-02-26T04:07:52;151.30;;;45.50;;
84411;SDS011;74609;44.028;20.950;2024-02-26T04:10:18;35.38;;;11.50;;
84411;SDS011;74609;44.028;20.950;2024-02-26T04:12:44;16.98;;;6.15;;
84411;SDS011;74609;44.028;20.950;2024-02-26T04:15:10;17.08;;;5.70;;
84411;SDS011;74609;44.028;20.950;2024-02-26T04:17:37;22.13;;;7.97;;
84411;SDS011;74609;44.028;20.950;2024-02-26T04:20:03;12.43;;;6.00;;
84411;SDS011;74609;44.028;20.950;2024-02-26T04:22:33;44.15;;;17.77;;
84411;SDS011;74609;44.028;20.950;2024-02-26T04:24:59;19.80;;;8.27;;
84411;SDS011;74609;44.028;20.950;2024-02-26T04:27:25;14.57;;;6.03;;
84411;SDS011;74609;44.028;20.950;2024-02-26T04:29:51;17.92;;;6.90;;
84411;SDS011;74609;44.028;20.950;2024-02-26T04:32:17;22.90;;;9.45;;
84411;SDS011;74609;44.028;20.950;2024-02-26T04:34:44;12.55;;;5.60;;
84411;SDS011;74609;44.028;20.950;2024-02-26T04:37:10;26.08;;;10.18;;
84411;SDS011;74609;44.028;20.950;2024-02-26T04:39:36;14.60;;;6.32;;
84411;SDS011;74609;44.028;20.950;2024-02-26T04:42:02;22.45;;;9.07;;
84411;SDS011;74609;44.028;20.950;2024-02-26T04:44:29;17.15;;;6.82;;
84411;SDS011;74609;44.028;20.950;2024-02-26T04:46:55;17.23;;;6.90;;
84411;SDS011;74609;44.028;20.950;2024-02-26T04:49:21;18.65;;;8.43;;
84411;SDS011;74609;44.028;20.950;2024-02-26T04:51:47;17.90;;;6.55;;
84411;SDS011;74609;44.028;20.950;2024-02-26T04:54:14;16.27;;;8.43;;
84411;SDS011;74609;44.028;20.950;2024-02-26T04:56:40;12.77;;;6.32;;
84411;SDS011;74609;44.028;20.950;2024-02-26T04:59:06;17.15;;;8.10;;
84411;SDS011;74609;44.028;20.950;2024-02-26T05:01:32;13.35;;;6.45;;
84411;SDS011;74609;44.028;20.950;2024-02-26T05:03:58;29.55;;;10.30;;
84411;SDS011;74609;44.028;20.950;2024-02-26T05:06:24;31.83;;;11.45;;
84411;SDS011;74609;44.028;20.950;2024-02-26T05:08:50;27.38;;;9.85;;
84411;SDS011;74609;44.028;20.950;2024-02-26T05:11:17;27.83;;;11.05;;
84411;SDS011;74609;44.028;20.950;2024-02-26T05:13:43;18.77;;;7.95;;
84411;SDS011;74609;44.028;20.950;2024-02-26T05:16:10;21.48;;;9.00;;
84411;SDS011;74609;44.028;20.950;2024-02-26T05:18:36;29.90;;;12.77;;
84411;SDS011;74609;44.028;20.950;2024-02-26T05:21:02;18.30;;;8.48;;
84411;SDS011;74609;44.028;20.950;2024-02-26T05:23:28;34.90;;;16.70;;
84411;SDS011;74609;44.028;20.950;2024-02-26T05:25:55;34.33;;;14.93;;
84411;SDS011;74609;44.028;20.950;2024-02-26T05:28:21;28.08;;;12.48;;
84411;SDS011;74609;44.028;20.950;2024-02-26T05:30:47;28.48;;;13.77;;
84411;SDS011;74609;44.028;20.950;2024-02-26T05:33:13;41.05;;;21.13;;
84411;SDS011;74609;44.028;20.950;2024-02-26T05:35:39;26.45;;;12.20;;
84411;SDS011;74609;44.028;20.950;2024-02-26T05:38:06;44.00;;;22.15;;
84411;SDS011;74609;44.028;20.950;2024-02-26T05:40:32;25.13;;;11.88;;
84411;SDS011;74609;44.028;20.950;2024-02-26T05:42:58;29.33;;;15.15;;
84411;SDS011;74609;44.028;20.950;2024-02-26T05:45:24;29.85;;;13.68;;
84411;SDS011;74609;44.028;20.950;2024-02-26T05:47:50;23.20;;;10.43;;
84411;SDS011;74609;44.028;20.950;2024-02-26T05:50:16;27.42;;;13.80;;
84411;SDS011;74609;44.028;20.950;2024-02-26T05:52:42;23.63;;;10.70;;
84411;SDS011;74609;44.028;20.950;2024-02-26T05:55:08;26.23;;;12.38;;
84411;SDS011;74609;44.028;20.950;2024-02-26T05:57:34;24.23;;;12.52;;
84411;SDS011;74609;44.028;20.950;2024-02-26T06:00:00;19.42;;;9.38;;
84411;SDS011;74609;44.028;20.950;2024-02-26T06:02:31;19.38;;;10.02;;
84411;SDS011;74609;44.028;20.950;2024-02-26T06:04:58;22.58;;;10.50;;
84411;SDS011;74609;44.028;20.950;2024-02-26T06:07:24;22.38;;;11.93;;
84411;SDS011;74609;44.028;20.950;2024-02-26T06:09:51;20.48;;;11.57;;
84411;SDS011;74609;44.028;20.950;2024-02-26T06:12:17;19.75;;;9.88;;
84411;SDS011;74609;44.028;20.950;2024-02-26T06:14:43;18.20;;;8.35;;
84411;SDS011;74609;44.028;20.950;2024-02-26T06:17:09;18.60;;;9.32;;
84411;SDS011;74609;44.028;20.950;2024-02-26T06:19:35;17.75;;;8.27;;
84411;SDS011;74609;44.028;20.950;2024-02-26T06:22:01;15.48;;;9.55;;
84411;SDS011;74609;44.028;20.950;2024-02-26T06:24:27;16.98;;;8.77;;
84411;SDS011;74609;44.028;20.950;2024-02-26T06:26:53;23.45;;;12.00;;
84411;SDS011;74609;44.028;20.950;2024-02-26T06:29:19;22.35;;;11.82;;
84411;SDS011;74609;44.028;20.950;2024-02-26T06:31:45;22.48;;;13.60;;
84411;SDS011;74609;44.028;20.950;2024-02-26T06:34:13;22.83;;;13.55;;
84411;SDS011;74609;44.028;20.950;2024-02-26T06:36:39;20.50;;;11.77;;
84411;SDS011;74609;44.028;20.950;2024-02-26T06:39:05;19.38;;;10.52;;
84411;SDS011;74609;44.028;20.950;2024-02-26T06:41:33;19.92;;;10.07;;
84411;SDS011;74609;44.028;20.950;2024-02-26T06:43:59;17.85;;;8.85;;
84411;SDS011;74609;44.028;20.950;2024-02-26T06:46:25;16.83;;;8.18;;
84411;SDS011;74609;44.028;20.950;2024-02-26T06:48:51;17.13;;;9.25;;
84411;SDS011;74609;44.028;20.950;2024-02-26T06:51:18;19.88;;;9.80;;
84411;SDS011;74609;44.028;20.950;2024-02-26T06:53:44;17.15;;;10.45;;
84411;SDS011;74609;44.028;20.950;2024-02-26T06:56:10;20.23;;;8.45;;
84411;SDS011;74609;44.028;20.950;2024-02-26T06:58:36;14.25;;;6.47;;
84411;SDS011;74609;44.028;20.950;2024-02-26T07:01:02;13.98;;;7.60;;
84411;SDS011;74609;44.028;20.950;2024-02-26T07:03:29;12.73;;;5.65;;
84411;SDS011;74609;44.028;20.950;2024-02-26T07:05:55;11.18;;;7.03;;
84411;SDS011;74609;44.028;20.950;2024-02-26T07:08:21;12.77;;;6.85;;
84411;SDS011;74609;44.028;20.950;2024-02-26T07:10:48;12.60;;;5.80;;
84411;SDS011;74609;44.028;20.950;2024-02-26T07:13:15;13.23;;;6.25;;
84411;SDS011;74609;44.028;20.950;2024-02-26T07:15:41;10.30;;;5.82;;
84411;SDS011;74609;44.028;20.950;2024-02-26T07:18:07;14.63;;;6.43;;
84411;SDS011;74609;44.028;20.950;2024-02-26T07:20:33;13.23;;;6.47;;
84411;SDS011;74609;44.028;20.950;2024-02-26T07:23:00;13.18;;;6.40;;
84411;SDS011;74609;44.028;20.950;2024-02-26T07:25:26;14.70;;;6.28;;
84411;SDS011;74609;44.028;20.950;2024-02-26T07:27:52;13.50;;;6.40;;
84411;SDS011;74609;44.028;20.950;2024-02-26T07:30:18;16.50;;;7.30;;
84411;SDS011;74609;44.028;20.950;2024-02-26T07:32:44;14.57;;;7.30;;
84411;SDS011;74609;44.028;20.950;2024-02-26T07:35:10;10.85;;;6.45;;
84411;SDS011;74609;44.028;20.950;2024-02-26T07:37:36;10.45;;;6.68;;
84411;SDS011;74609;44.028;20.950;2024-02-26T07:40:03;12.25;;;6.28;;
84411;SDS011;74609;44.028;20.950;2024-02-26T07:42:29;10.73;;;6.30;;
84411;SDS011;74609;44.028;20.950;2024-02-26T07:44:55;9.80;;;5.40;;
84411;SDS011;74609;44.028;20.950;2024-02-26T07:47:21;11.27;;;5.15;;
84411;SDS011;74609;44.028;20.950;2024-02-26T07:49:48;11.45;;;5.85;;
84411;SDS011;74609;44.028;20.950;2024-02-26T07:52:14;9.65;;;5.47;;
84411;SDS011;74609;44.028;20.950;2024-02-26T07:54:40;10.82;;;5.47;;
84411;SDS011;74609;44.028;20.950;2024-02-26T07:57:06;9.52;;;4.60;;
84411;SDS011;74609;44.028;20.950;2024-02-26T07:59:33;9.43;;;4.90;;
84411;SDS011;74609;44.028;20.950;2024-02-26T08:01:59;7.78;;;3.80;;
84411;SDS011;74609;44.028;20.950;2024-02-26T08:04:28;21.13;;;7.80;;
84411;SDS011;74609;44.028;20.950;2024-02-26T08:06:54;13.23;;;5.90;;
84411;SDS011;74609;44.028;20.950;2024-02-26T08:09:20;11.00;;;5.28;;
84411;SDS011;74609;44.028;20.950;2024-02-26T08:11:46;7.63;;;4.57;;
84411;SDS011;74609;44.028;20.950;2024-02-26T08:14:12;12.95;;;6.07;;
84411;SDS011;74609;44.028;20.950;2024-02-26T08:16:38;5.53;;;3.42;;
84411;SDS011;74609;44.028;20.950;2024-02-26T08:19:05;10.95;;;6.18;;
84411;SDS011;74609;44.028;20.950;2024-02-26T08:21:31;8.15;;;5.10;;
84411;SDS011;74609;44.028;20.950;2024-02-26T08:23:57;10.65;;;4.65;;
84411;SDS011;74609;44.028;20.950;2024-02-26T08:26:23;9.13;;;4.40;;
84411;SDS011;74609;44.028;20.950;2024-02-26T08:28:49;5.75;;;3.97;;
84411;SDS011;74609;44.028;20.950;2024-02-26T08:31:16;8.15;;;4.55;;
84411;SDS011;74609;44.028;20.950;2024-02-26T08:33:42;6.95;;;4.00;;
84411;SDS011;74609;44.028;20.950;2024-02-26T08:36:08;7.15;;;3.75;;
84411;SDS011;74609;44.028;20.950;2024-02-26T08:38:35;7.25;;;3.72;;
84411;SDS011;74609;44.028;20.950;2024-02-26T08:41:01;5.60;;;3.67;;
84411;SDS011;74609;44.028;20.950;2024-02-26T08:43:28;7.57;;;4.53;;
84411;SDS011;74609;44.028;20.950;2024-02-26T08:45:54;9.15;;;4.95;;
84411;SDS011;74609;44.028;20.950;2024-02-26T08:48:21;5.45;;;3.63;;
84411;SDS011;74609;44.028;20.950;2024-02-26T08:50:47;8.48;;;4.78;;
84411;SDS011;74609;44.028;20.950;2024-02-26T08:53:13;8.23;;;4.68;;
84411;SDS011;74609;44.028;20.950;2024-02-26T08:55:39;12.20;;;5.95;;
84411;SDS011;74609;44.028;20.950;2024-02-26T08:58:05;7.68;;;4.28;;
84411;SDS011;74609;44.028;20.950;2024-02-26T09:00:31;6.68;;;3.88;;
84411;SDS011;74609;44.028;20.950;2024-02-26T09:02:58;7.55;;;4.35;;
84411;SDS011;74609;44.028;20.950;2024-02-26T09:05:24;11.15;;;4.75;;
84411;SDS011;74609;44.028;20.950;2024-02-26T09:07:50;9.77;;;4.55;;
84411;SDS011;74609;44.028;20.950;2024-02-26T09:10:17;7.82;;;4.68;;
84411;SDS011;74609;44.028;20.950;2024-02-26T09:12:43;8.40;;;4.10;;
84411;SDS011;74609;44.028;20.950;2024-02-26T09:15:09;6.57;;;4.35;;
84411;SDS011;74609;44.028;20.950;2024-02-26T09:17:35;9.38;;;4.60;;
84411;SDS011;74609;44.028;20.950;2024-02-26T09:20:02;8.43;;;4.63;;
84411;SDS011;74609;44.028;20.950;2024-02-26T09:22:28;12.10;;;4.22;;
84411;SDS011;74609;44.028;20.950;2024-02-26T09:24:55;9.30;;;4.25;;
84411;SDS011;74609;44.028;20.950;2024-02-26T09:27:21;10.02;;;4.10;;
84411;SDS011;74609;44.028;20.950;2024-02-26T09:29:48;5.78;;;3.95;;
84411;SDS011;74609;44.028;20.950;2024-02-26T09:32:14;8.35;;;4.20;;
84411;SDS011;74609;44.028;20.950;2024-02-26T09:34:41;7.07;;;3.83;;
84411;SDS011;74609;44.028;20.950;2024-02-26T09:37:07;8.40;;;4.75;;
84411;SDS011;74609;44.028;20.950;2024-02-26T09:39:34;8.60;;;4.07;;
84411;SDS011;74609;44.028;20.950;2024-02-26T09:42:01;5.03;;;3.17;;
84411;SDS011;74609;44.028;20.950;2024-02-26T09:44:34;6.00;;;4.00;;
84411;SDS011;74609;44.028;20.950;2024-02-26T09:47:03;6.30;;;3.58;;
84411;SDS011;74609;44.028;20.950;2024-02-26T09:49:31;5.55;;;3.60;;
84411;SDS011;74609;44.028;20.950;2024-02-26T09:51:57;5.53;;;3.53;;
84411;SDS011;74609;44.028;20.950;2024-02-26T09:54:23;6.38;;;3.53;;
84411;SDS011;74609;44.028;20.950;2024-02-26T09:56:51;7.68;;;3.72;;
84411;SDS011;74609;44.028;20.950;2024-02-26T09:59:18;9.45;;;4.00;;
84411;SDS011;74609;44.028;20.950;2024-02-26T10:01:45;9.35;;;3.72;;
84411;SDS011;74609;44.028;20.950;2024-02-26T10:04:12;7.05;;;2.70;;
84411;SDS011;74609;44.028;20.950;2024-02-26T10:06:38;5.72;;;3.70;;
84411;SDS011;74609;44.028;20.950;2024-02-26T10:09:05;8.32;;;3.13;;
84411;SDS011;74609;44.028;20.950;2024-02-26T10:11:34;6.05;;;3.08;;
84411;SDS011;74609;44.028;20.950;2024-02-26T10:14:01;5.93;;;3.35;;
84411;SDS011;74609;44.028;20.950;2024-02-26T10:16:27;6.97;;;2.80;;
84411;SDS011;74609;44.028;20.950;2024-02-26T10:18:54;6.85;;;3.20;;
84411;SDS011;74609;44.028;20.950;2024-02-26T10:21:20;5.68;;;2.88;;
84411;SDS011;74609;44.028;20.950;2024-02-26T10:23:47;6.03;;;2.65;;
84411;SDS011;74609;44.028;20.950;2024-02-26T10:26:13;4.78;;;3.00;;
84411;SDS011;74609;44.028;20.950;2024-02-26T10:28:41;7.25;;;2.67;;
84411;SDS011;74609;44.028;20.950;2024-02-26T10:31:07;4.13;;;2.50;;
84411;SDS011;74609;44.028;20.950;2024-02-26T10:33:37;4.38;;;2.80;;
84411;SDS011;74609;44.028;20.950;2024-02-26T10:36:04;4.18;;;2.35;;
84411;SDS011;74609;44.028;20.950;2024-02-26T10:38:30;5.30;;;2.22;;
84411;SDS011;74609;44.028;20.950;2024-02-26T10:40:56;4.38;;;2.35;;
84411;SDS011;74609;44.028;20.950;2024-02-26T10:43:22;5.90;;;2.10;;
84411;SDS011;74609;44.028;20.950;2024-02-26T10:45:49;4.20;;;2.20;;
84411;SDS011;74609;44.028;20.950;2024-02-26T10:48:15;5.03;;;2.65;;
84411;SDS011;74609;44.028;20.950;2024-02-26T10:50:42;4.82;;;2.78;;
84411;SDS011;74609;44.028;20.950;2024-02-26T10:53:19;7.20;;;2.45;;
84411;SDS011;74609;44.028;20.950;2024-02-26T10:55:52;4.88;;;2.20;;
84411;SDS011;74609;44.028;20.950;2024-02-26T10:58:18;4.13;;;2.10;;
84411;SDS011;74609;44.028;20.950;2024-02-26T11:00:45;3.97;;;2.33;;
84411;SDS011;74609;44.028;20.950;2024-02-26T11:03:12;3.90;;;2.40;;
84411;SDS011;74609;44.028;20.950;2024-02-26T11:05:41;2.75;;;1.92;;
84411;SDS011;74609;44.028;20.950;2024-02-26T11:08:07;3.92;;;2.15;;
84411;SDS011;74609;44.028;20.950;2024-02-26T11:10:33;4.50;;;2.30;;
84411;SDS011;74609;44.028;20.950;2024-02-26T11:13:00;2.38;;;2.03;;
84411;SDS011;74609;44.028;20.950;2024-02-26T11:15:27;2.78;;;2.10;;
84411;SDS011;74609;44.028;20.950;2024-02-26T11:17:54;3.47;;;2.15;;
84411;SDS011;74609;44.028;20.950;2024-02-26T11:20:21;5.20;;;2.30;;
84411;SDS011;74609;44.028;20.950;2024-02-26T11:22:49;5.18;;;2.40;;
84411;SDS011;74609;44.028;20.950;2024-02-26T11:25:15;4.95;;;2.38;;
84411;SDS011;74609;44.028;20.950;2024-02-26T11:27:46;9.65;;;2.17;;
84411;SDS011;74609;44.028;20.950;2024-02-26T11:30:13;3.70;;;2.00;;
84411;SDS011;74609;44.028;20.950;2024-02-26T11:32:43;10.57;;;2.55;;
84411;SDS011;74609;44.028;20.950;2024-02-26T11:35:10;4.97;;;2.20;;
84411;SDS011;74609;44.028;20.950;2024-02-26T11:37:38;5.85;;;2.20;;
84411;SDS011;74609;44.028;20.950;2024-02-26T11:40:05;5.60;;;2.38;;
84411;SDS011;74609;44.028;20.950;2024-02-26T11:42:35;4.70;;;1.80;;
84411;SDS011;74609;44.028;20.950;2024-02-26T11:45:38;4.18;;;1.90;;
84411;SDS011;74609;44.028;20.950;2024-02-26T11:47:58;3.72;;;1.90;;
84411;SDS011;74609;44.028;20.950;2024-02-26T11:50:32;6.95;;;1.90;;
84411;SDS011;74609;44.028;20.950;2024-02-26T11:53:19;6.63;;;2.38;;
84411;SDS011;74609;44.028;20.950;2024-02-26T11:55:45;3.58;;;1.92;;
84411;SDS011;74609;44.028;20.950;2024-02-26T11:58:11;3.03;;;2.00;;
84411;SDS011;74609;44.028;20.950;2024-02-26T12:00:39;4.80;;;2.10;;
84411;SDS011;74609;44.028;20.950;2024-02-26T12:03:05;5.38;;;2.00;;
84411;SDS011;74609;44.028;20.950;2024-02-26T12:05:33;3.50;;;2.08;;
84411;SDS011;74609;44.028;20.950;2024-02-26T12:13:07;3.55;;;1.90;;
84411;SDS011;74609;44.028;20.950;2024-02-26T12:15:37;4.13;;;1.98;;
84411;SDS011;74609;44.028;20.950;2024-02-26T12:18:04;4.38;;;1.90;;
84411;SDS011;74609;44.028;20.950;2024-02-26T12:20:31;4.90;;;1.90;;
84411;SDS011;74609;44.028;20.950;2024-02-26T12:22:57;3.03;;;2.10;;
84411;SDS011;74609;44.028;20.950;2024-02-26T12:25:24;3.70;;;1.92;;
84411;SDS011;74609;44.028;20.950;2024-02-26T12:27:51;4.65;;;2.38;;
84411;SDS011;74609;44.028;20.950;2024-02-26T12:30:18;5.95;;;1.88;;
84411;SDS011;74609;44.028;20.950;2024-02-26T12:32:44;7.05;;;2.05;;
84411;SDS011;74609;44.028;20.950;2024-02-26T12:35:11;4.57;;;2.13;;
84411;SDS011;74609;44.028;20.950;2024-02-26T12:37:38;2.92;;;2.45;;
84411;SDS011;74609;44.028;20.950;2024-02-26T12:40:05;2.67;;;2.00;;
84411;SDS011;74609;44.028;20.950;2024-02-26T12:42:33;3.28;;;1.90;;
84411;SDS011;74609;44.028;20.950;2024-02-26T12:45:04;4.63;;;2.33;;
84411;SDS011;74609;44.028;20.950;2024-02-26T12:47:43;3.78;;;2.10;;
84411;SDS011;74609;44.028;20.950;2024-02-26T12:50:14;4.47;;;2.28;;
84411;SDS011;74609;44.028;20.950;2024-02-26T12:52:43;4.85;;;2.20;;
84411;SDS011;74609;44.028;20.950;2024-02-26T12:55:10;4.47;;;2.20;;
84411;SDS011;74609;44.028;20.950;2024-02-26T12:57:37;5.53;;;2.33;;
84411;SDS011;74609;44.028;20.950;2024-02-26T13:00:06;5.20;;;2.30;;
84411;SDS011;74609;44.028;20.950;2024-02-26T13:02:36;5.20;;;2.47;;
84411;SDS011;74609;44.028;20.950;2024-02-26T13:05:03;2.90;;;2.60;;
84411;SDS011;74609;44.028;20.950;2024-02-26T13:07:31;8.13;;;4.82;;
84411;SDS011;74609;44.028;20.950;2024-02-26T13:09:58;11.85;;;5.93;;
84411;SDS011;74609;44.028;20.950;2024-02-26T13:12:24;14.82;;;4.80;;
84411;SDS011;74609;44.028;20.950;2024-02-26T13:15:05;8.50;;;4.97;;
84411;SDS011;74609;44.028;20.950;2024-02-26T13:17:32;10.20;;;6.18;;
84411;SDS011;74609;44.028;20.950;2024-02-26T13:19:59;11.02;;;5.60;;
84411;SDS011;74609;44.028;20.950;2024-02-26T13:22:26;8.73;;;5.68;;
84411;SDS011;74609;44.028;20.950;2024-02-26T13:24:55;10.77;;;5.70;;
84411;SDS011;74609;44.028;20.950;2024-02-26T13:27:25;9.95;;;6.13;;
84411;SDS011;74609;44.028;20.950;2024-02-26T13:32:33;8.95;;;5.88;;
84411;SDS011;74609;44.028;20.950;2024-02-26T13:37:26;9.90;;;5.90;;
84411;SDS011;74609;44.028;20.950;2024-02-26T13:39:52;12.85;;;6.13;;
84411;SDS011;74609;44.028;20.950;2024-02-26T13:42:18;7.28;;;5.25;;
84411;SDS011;74609;44.028;20.950;2024-02-26T13:44:44;7.95;;;5.78;;
84411;SDS011;74609;44.028;20.950;2024-02-26T13:47:10;10.18;;;5.20;;
84411;SDS011;74609;44.028;20.950;2024-02-26T13:49:36;10.30;;;6.00;;
84411;SDS011;74609;44.028;20.950;2024-02-26T13:52:03;9.32;;;5.70;;
84411;SDS011;74609;44.028;20.950;2024-02-26T13:54:32;8.50;;;5.75;;
84411;SDS011;74609;44.028;20.950;2024-02-26T13:56:59;11.27;;;5.10;;
84411;SDS011;74609;44.028;20.950;2024-02-26T13:59:25;7.22;;;5.03;;
84411;SDS011;74609;44.028;20.950;2024-02-26T14:01:51;7.95;;;5.63;;
84411;SDS011;74609;44.028;20.950;2024-02-26T14:04:20;10.57;;;5.25;;
84411;SDS011;74609;44.028;20.950;2024-02-26T14:06:46;11.95;;;5.75;;
84411;SDS011;74609;44.028;20.950;2024-02-26T14:09:12;7.63;;;5.00;;
84411;SDS011;74609;44.028;20.950;2024-02-26T14:11:43;8.70;;;5.95;;
84411;SDS011;74609;44.028;20.950;2024-02-26T14:14:10;9.73;;;5.35;;
84411;SDS011;74609;44.028;20.950;2024-02-26T14:16:36;12.45;;;4.80;;
84411;SDS011;74609;44.028;20.950;2024-02-26T14:19:02;14.35;;;5.43;;
84411;SDS011;74609;44.028;20.950;2024-02-26T14:21:28;7.15;;;4.55;;
84411;SDS011;74609;44.028;20.950;2024-02-26T14:23:55;10.75;;;4.70;;
84411;SDS011;74609;44.028;20.950;2024-02-26T14:26:24;9.05;;;5.22;;
84411;SDS011;74609;44.028;20.950;2024-02-26T14:28:50;10.85;;;5.68;;
84411;SDS011;74609;44.028;20.950;2024-02-26T14:31:19;8.70;;;5.80;;
84411;SDS011;74609;44.028;20.950;2024-02-26T14:33:45;9.88;;;5.85;;
84411;SDS011;74609;44.028;20.950;2024-02-26T14:36:11;8.00;;;4.82;;